Latest Weather Observations for Mangrove Mountain

IDN60801

Issued at 2:03 pm EST Monday 27 June 2016 (issued every 30 minutes, with the page automatically refreshed every 10 minutes)

About weather observations | Map of weather stations | Latest weather observations for NSW | Other Formats
Station Details ID: 061375 Name: MANGROVE MOUNTAIN AWS Lat: -33.29 Lon: 151.21 Height: 305.0 m
Data from the previous 72 hours. | See also: Recent months at Mangrove Mountain
Date/Time
EST
Temp
°C
App
Temp
°C
Dew
Point
°C
Rel
Hum
%
Delta-T
°C
Wind Press
QNH
hPa
Press
MSL
hPa
Rain since
9am
mm
Dir  Spd
km/h
Gust
km/h
Spd
kts
Gust
kts
27/02:00pm 9.6 7.1 4.6 71 2.3 W 7 15 4 8 - - 0.2
27/01:30pm 9.7 6.7 4.1 68 2.5 WSW 9 17 5 9 - - 0.2
27/01:00pm 9.9 6.4 5.3 73 2.1 WSW 13 19 7 10 - - 0.2
27/12:30pm 10.5 8.2 5.7 72 2.2 W 7 11 4 6 - - 0.2
27/12:00pm 11.2 8.1 5.7 69 2.6 WNW 11 19 6 10 - - 0.2
27/11:30am 10.6 7.5 5.4 70 2.4 WNW 11 19 6 10 - - 0.2
27/11:00am 9.0 5.7 4.4 73 2.1 NW 11 17 6 9 - - 0.2
27/10:30am 8.9 5.5 4.1 72 2.1 WNW 11 19 6 10 - - 0.2
27/10:00am 9.5 6.7 5.1 74 2.0 W 9 17 5 9 - - 0.2
27/09:30am 8.4 6.1 5.9 84 1.2 WNW 7 15 4 8 - - 0.2
27/09:00am 7.0 4.4 4.1 82 1.3 WNW 7 11 4 6 - - 0.0
27/08:30am 6.9 4.2 3.9 81 1.3 WNW 7 15 4 8 - - 0.0
27/08:00am 6.5 4.0 3.8 83 1.2 WNW 6 9 3 5 - - 0.0
27/07:30am 6.3 4.1 3.3 81 1.3 NW 4 7 2 4 - - 0.0
27/07:00am 6.6 4.4 3.2 79 1.5 W 4 7 2 4 - - 0.0
27/06:30am 6.5 3.9 3.3 80 1.4 WNW 6 9 3 5 - - 0.0
27/06:00am 6.2 3.6 3.4 82 1.2 WNW 6 9 3 5 - - 0.0
27/05:30am 6.5 3.9 3.3 80 1.4 NNW 6 9 3 5 - - 0.0
27/05:00am 6.5 3.9 3.3 80 1.4 NW 6 9 3 5 - - 0.0
27/04:30am 7.1 4.5 3.2 76 1.7 SW 6 9 3 5 - - 0.0
27/04:00am 6.7 3.6 3.7 81 1.3 W 9 15 5 8 - - 0.0
27/03:30am 7.0 4.8 3.1 76 1.7 W 4 7 2 4 - - 0.0
27/03:00am 6.7 5.2 3.0 77 1.6 CALM 0 0 0 0 - - 0.0
27/02:30am 6.9 5.4 3.0 76 1.7 CALM 0 4 0 2 - - 0.0
27/02:00am 6.9 4.7 3.3 78 1.5 NNW 4 7 2 4 - - 0.0
27/01:30am 6.1 4.7 3.3 82 1.2 CALM 0 0 0 0 - - 0.0
27/01:00am 6.4 4.9 2.9 78 1.5 CALM 0 0 0 0 - - 0.0
27/12:30am 6.7 4.8 2.8 76 1.7 NNW 2 4 1 2 - - 0.0
27/12:00am 6.7 4.8 2.8 76 1.7 NW 2 6 1 3 - - 0.0
 
Date/Time
EST
Temp
°C
App
Temp
°C
Dew
Point
°C
Rel
Hum
%
Delta-T
°C
Wind Press
QNH
hPa
Press
MSL
hPa
Rain since
9am
mm
Dir  Spd
km/h
Gust
km/h
Spd
kts
Gust
kts
26/11:30pm 6.4 4.2 3.2 80 1.4 NW 4 6 2 3 - - 0.0
26/11:00pm 5.9 3.7 3.4 84 1.1 NW 4 6 2 3 - - 0.0
26/10:30pm 6.2 4.0 3.5 83 1.2 NNW 4 6 2 3 - - 0.0
26/10:00pm 5.4 4.0 3.3 86 0.9 CALM 0 2 0 1 - - 0.0
26/09:30pm 5.0 3.3 2.0 81 1.2 CALM 0 4 0 2 - - 0.0
26/09:00pm 6.8 5.0 3.2 78 1.5 N 2 4 1 2 - - 0.0
26/08:30pm 7.1 5.7 3.7 79 1.5 CALM 0 2 0 1 - - 0.0
26/08:00pm 8.1 6.3 3.6 73 2.0 NNW 2 4 1 2 - - 0.0
26/07:30pm 8.0 6.2 3.3 72 2.0 N 2 4 1 2 - - 0.0
26/07:00pm 8.2 6.1 3.7 73 2.0 N 4 6 2 3 - - 0.0
26/06:30pm 7.2 5.9 4.3 82 1.3 CALM 0 0 0 0 - - 0.0
26/06:00pm 7.3 5.7 4.3 81 1.3 N 2 4 1 2 - - 0.0
26/05:30pm 7.7 6.5 4.5 80 1.4 CALM 0 0 0 0 - - 0.0
26/05:00pm 8.5 7.3 4.5 76 1.8 CALM 0 0 0 0 - - 0.0
26/04:30pm 9.3 8.2 5.3 76 1.8 CALM 0 0 0 0 - - 0.0
26/04:00pm 10.3 9.2 4.9 69 2.5 CALM 0 0 0 0 - - 0.0
26/03:30pm 10.9 9.6 3.9 62 3.2 CALM 0 0 0 0 - - 0.0
26/03:00pm 11.1 8.9 3.2 58 3.5 WNW 4 6 2 3 - - 0.0
26/02:30pm 12.3 9.7 3.0 53 4.2 WNW 6 9 3 5 - - 0.0
26/02:00pm 12.9 10.3 3.3 52 4.3 NW 6 9 3 5 - - 0.0
26/01:30pm 11.8 8.9 2.5 53 4.1 NW 7 11 4 6 - - 0.0
26/01:00pm 13.8 10.8 2.1 45 5.2 NW 7 11 4 6 - - 0.0
26/12:30pm 12.6 9.6 1.0 45 5.0 NW 6 9 3 5 - - 0.0
26/12:00pm 12.5 9.7 2.1 49 4.6 WSW 6 11 3 6 - - 0.0
26/11:30am 12.3 9.5 3.0 53 4.2 WSW 7 13 4 7 - - 0.0
26/11:00am 10.6 7.9 2.4 57 3.6 W 6 11 3 6 - - 0.0
26/10:30am 9.8 6.7 1.2 55 3.6 W 7 11 4 6 - - 0.0
26/10:00am 8.7 5.8 1.4 60 3.0 W 6 9 3 5 - - 0.0
26/09:30am 7.7 4.9 2.2 68 2.3 NW 6 7 3 4 - - 0.0
26/09:00am 7.3 5.0 2.8 73 1.9 WNW 4 6 2 3 - - 0.0
26/08:30am 5.0 2.6 2.0 81 1.2 WNW 4 7 2 4 - - 0.0
26/08:00am 2.1 -0.5 1.1 93 0.4 WNW 4 6 2 3 - - 0.0
26/07:30am -0.1 -3.0 -0.9 94 0.3 NW 4 6 2 3 - - 0.0
26/07:00am -0.1 -3.0 -1.2 92 0.4 WNW 4 6 2 3 - - 0.0
26/06:30am -0.1 -3.0 -1.1 93 0.4 WNW 4 7 2 4 - - 0.0
26/06:00am 0.3 -3.1 -0.8 92 0.4 NW 7 9 4 5 - - 0.0
26/05:30am 0.5 -2.9 -0.5 93 0.4 NW 7 11 4 6 - - 0.0
26/05:00am 0.1 -3.3 -0.9 93 0.4 NW 7 9 4 5 - - 0.0
26/04:30am -0.1 -3.4 -1.1 93 0.4 NW 6 9 3 5 - - 0.0
26/04:00am 0.2 -3.1 -0.9 92 0.4 NW 6 9 3 5 - - 0.0
26/03:30am 0.1 -3.1 -0.7 94 0.3 NW 6 7 3 4 - - 0.0
26/03:00am -0.3 -3.2 -1.3 93 0.3 NW 4 6 2 3 - - 0.0
26/02:30am 0.1 -3.2 -1.2 91 0.5 NW 6 6 3 3 - - 0.0
26/02:00am 0.6 -2.7 -1.0 89 0.6 NW 6 7 3 4 - - 0.0
26/01:30am 1.1 -2.1 -0.4 90 0.6 NW 6 7 3 4 - - 0.0
26/01:00am 1.2 -2.0 -0.3 90 0.6 NW 6 7 3 4 - - 0.0
26/12:30am 1.5 -1.7 -0.4 87 0.7 NW 6 7 3 4 - - 0.0
26/12:00am 2.0 -1.1 -0.1 86 0.8 NW 6 7 3 4 - - 0.0
 
Date/Time
EST
Temp
°C
App
Temp
°C
Dew
Point
°C
Rel
Hum
%
Delta-T
°C
Wind Press
QNH
hPa
Press
MSL
hPa
Rain since
9am
mm
Dir  Spd
km/h
Gust
km/h
Spd
kts
Gust
kts
25/11:30pm 1.8 -1.6 -0.3 86 0.8 NW 7 9 4 5 - - 0.0
25/11:00pm 1.7 -1.1 -0.5 85 0.8 WNW 4 6 2 3 - - 0.0
25/10:30pm 2.9 -0.2 0.0 81 1.1 WNW 6 7 3 4 - - 0.0
25/10:00pm 2.3 -0.9 -0.6 81 1.1 WNW 6 6 3 3 - - 0.0
25/09:30pm 3.4 0.2 -0.6 75 1.5 WNW 6 7 3 4 - - 0.0
25/09:00pm 4.2 1.4 -0.4 72 1.8 W 4 6 2 3 - - 0.0
25/08:30pm 5.1 2.3 -0.5 67 2.1 WSW 4 7 2 4 - - 0.0
25/08:00pm 5.9 2.7 -0.2 65 2.4 WSW 6 11 3 6 - - 0.0
25/07:30pm 3.8 1.1 0.0 76 1.5 WSW 4 6 2 3 - - 0.0
25/07:00pm 3.4 1.1 0.1 79 1.3 WSW 2 4 1 2 - - 0.0
25/06:30pm 4.3 2.0 0.1 74 1.6 SW 2 4 1 2 - - 0.0
25/06:00pm 4.0 2.0 0.0 75 1.5 CALM 0 0 0 0 - - 0.0
25/05:30pm 4.4 2.3 -0.6 70 1.9 CALM 0 0 0 0 - - 0.0
25/05:00pm 6.0 3.7 0.1 66 2.3 WSW 2 4 1 2 - - 0.0
25/04:30pm 9.2 6.3 -0.9 49 4.0 SW 4 9 2 5 - - 0.0
25/04:00pm 10.8 7.9 -1.3 43 4.8 SW 4 7 2 4 - - 0.0
25/03:30pm 11.9 8.4 -1.3 40 5.3 W 7 15 4 8 - - 0.0
25/03:00pm 11.7 7.1 -1.4 40 5.3 WSW 13 20 7 11 - - 0.0
25/02:30pm 12.0 7.9 -0.5 42 5.2 W 11 20 6 11 - - 0.0
25/02:00pm 12.3 8.6 -0.2 42 5.2 WSW 9 24 5 13 - - 0.0
25/01:30pm 11.4 7.1 -2.0 39 5.3 SW 11 20 6 11 - - 0.0
25/01:00pm 11.5 7.2 -1.3 41 5.2 W 11 22 6 12 - - 0.0
25/12:30pm 11.1 7.3 -1.0 43 4.9 SW 9 20 5 11 - - 0.0
25/12:00pm 10.9 6.0 -0.5 45 4.7 W 15 30 8 16 - - 0.0
25/11:30am 10.3 5.4 -0.5 47 4.4 WSW 15 28 8 15 - - 0.0
25/11:00am 9.7 5.1 -1.3 46 4.4 WSW 13 22 7 12 - - 0.0
25/10:30am 9.5 4.9 -0.7 49 4.1 W 13 19 7 10 - - 0.0
25/10:00am 8.2 3.6 -1.1 52 3.6 W 13 20 7 11 - - 0.0
25/09:30am 8.0 4.3 0.0 57 3.2 W 9 13 5 7 - - 0.0
25/09:00am 6.9 3.2 -0.3 60 2.8 WNW 9 17 5 9 - - 0.8
25/08:30am 5.5 1.7 -0.8 64 2.4 WNW 9 17 5 9 - - 0.8
25/08:00am 4.3 0.9 -0.5 71 1.8 WNW 7 13 4 7 - - 0.8
25/07:30am 3.2 -0.1 -1.5 71 1.7 WNW 6 9 3 5 - - 0.8
25/07:00am 3.4 -0.1 -1.7 69 1.9 W 7 13 4 7 - - 0.8
25/06:30am 3.8 -0.1 -1.7 67 2.0 W 9 17 5 9 - - 0.8
25/06:00am 3.9 0.0 -1.7 67 2.1 W 9 15 5 8 - - 0.8
25/05:30am 4.3 0.0 -1.7 65 2.2 W 11 20 6 11 - - 0.8
25/05:00am 4.4 0.2 -1.2 67 2.1 WNW 11 19 6 10 - - 0.8
25/04:30am 4.6 0.1 -0.6 69 2.0 W 13 19 7 10 - - 0.8
25/04:00am 4.2 0.4 -0.8 70 1.9 W 9 15 5 8 - - 0.8
25/03:30am 4.4 0.6 -0.8 69 2.0 W 9 15 5 8 - - 0.8
25/03:00am 4.9 0.8 -0.5 68 2.1 W 11 17 6 9 - - 0.8
25/02:30am 5.0 0.5 -0.6 67 2.1 WNW 13 22 7 12 - - 0.8
25/02:00am 5.1 0.6 -0.5 67 2.1 WNW 13 22 7 12 - - 0.8
25/01:30am 5.2 1.1 -0.2 68 2.1 WNW 11 24 6 13 - - 0.8
25/01:00am 4.7 0.9 -0.5 69 2.0 W 9 15 5 8 - - 0.8
25/12:30am 5.0 1.6 -0.8 66 2.2 W 7 15 4 8 - - 0.8
25/12:00am 5.5 1.3 -0.8 64 2.4 WNW 11 22 6 12 - - 0.8
 
Date/Time
EST
Temp
°C
App
Temp
°C
Dew
Point
°C
Rel
Hum
%
Delta-T
°C
Wind Press
QNH
hPa
Press
MSL
hPa
Rain since
9am
mm
Dir  Spd
km/h
Gust
km/h
Spd
kts
Gust
kts
24/11:30pm 5.7 1.1 -0.8 63 2.5 W 13 26 7 14 - - 0.8
24/11:00pm 5.7 1.1 -0.8 63 2.5 WNW 13 19 7 10 - - 0.8
24/10:30pm 5.8 1.6 -0.7 63 2.5 WNW 11 20 6 11 - - 0.8
24/10:00pm 6.4 0.5 -0.6 61 2.7 W 20 35 11 19 - - 0.8
24/09:30pm 6.2 0.6 -0.1 64 2.5 WNW 19 37 10 20 - - 0.8
24/09:00pm 6.1 1.7 0.4 67 2.3 W 13 20 7 11 - - 0.8
24/08:30pm 6.4 0.9 0.7 67 2.3 WNW 19 35 10 19 - - 0.8
24/08:00pm 6.4 0.9 0.9 68 2.2 WNW 19 41 10 22 - - 0.8
24/07:30pm 6.5 1.5 1.2 69 2.2 W 17 32 9 17 - - 0.8
24/07:00pm 6.6 1.6 1.5 70 2.1 WNW 17 28 9 15 - - 0.8
24/06:30pm 6.8 1.5 2.1 72 2.0 WNW 19 35 10 19 - - 0.8
24/06:00pm 6.9 2.1 2.4 73 1.9 WNW 17 28 9 15 - - 0.8
24/05:30pm 7.1 1.9 2.4 72 2.0 W 19 33 10 18 - - 0.8
24/05:00pm 7.9 2.5 2.4 68 2.3 W 20 39 11 21 - - 0.8
24/04:30pm 8.6 3.4 2.2 64 2.7 WNW 19 30 10 16 - - 0.8
24/04:07pm 10.9 3.8 1.2 51 4.1 WNW 28 54 15 29 - - 0.8
24/04:00pm 11.3 5.3 1.0 49 4.4 WNW 22 44 12 24 - - 0.8
24/03:30pm 12.2 7.5 0.9 46 4.8 W 15 33 8 18 - - 0.8
24/03:00pm 12.5 7.0 0.9 45 5.0 W 19 35 10 19 - - 0.8
24/02:30pm 12.6 5.8 0.7 44 5.1 W 26 48 14 26 - - 0.8

Other Formats:

Comma delimited format used in spreadsheet applications
http://www.bom.gov.au/fwo/IDN60801/IDN60801.95774.axf

JavaScript Object Notation format (JSON) in row-major order
http://www.bom.gov.au/fwo/IDN60801/IDN60801.95774.json